Terminal Aerodrome Forecast
Issued by NWS

Home | Current Version | Previous Version | Text Only | Print | Product List | Glossary On
Versions: 1 2 3 4 5 6 7 8 9 10 11 12 13 14
619
FTUS43 KIND 261128
TAFLAF
TAF
KLAF 261128Z 2612/2712 27003KT P6SM SKC
     FM261900 28013KT P6SM BKN090
     FM262100 28013KT P6SM VCSH BKN090
     FM270000 29009KT P6SM BKN090
     FM270900 00000KT 4SM BR FEW150
      AMD LTD TO CLD VIS AND WIND TIL 261300=

USA.gov is the U.S. government's official web portal to all federal, state and local government web resources and services.